Time;durP1;ratioP1;P1;durP2;ratioP2;P2;SDS_P1;SDS_P2;PMS_P1;PMS_P2;Temp;Humidity;BMP_temperature;BMP_pressure;BME280_temperature;BME280_humidity;BME280_pressure;Samples;Min_cycle;Max_cycle;Signal;HPM_P1;HPM_P2
2022/09/11 00:02:10;;;;;;;11.35;4.12;;;;;;;24.25;58.92;101040.08;1784973;78;21005;-53
2022/09/11 00:04:37;;;;;;;13.45;4.85;;;;;;;24.22;59.78;101037.66;1784036;78;21001;-59
2022/09/11 00:07:04;;;;;;;15.25;4.87;;;;;;;24.39;60.33;101053.70;1781888;80;21010;-53
2022/09/11 00:09:30;;;;;;;14.28;5.25;;;;;;;24.47;60.88;101038.49;1780099;80;21586;-54
2022/09/11 00:11:57;;;;;;;20.27;6.37;;;;;;;24.54;61.14;101025.11;1787945;80;21029;-54
2022/09/11 00:14:27;;;;;;;17.80;5.15;;;;;;;24.59;61.32;101010.95;1781387;80;21529;-59
2022/09/11 00:16:53;;;;;;;11.83;4.40;;;;;;;24.65;61.48;101005.17;1777077;80;20994;-55
2022/09/11 00:19:20;;;;;;;11.50;4.05;;;;;;;24.68;61.52;101004.95;1783858;80;21045;-54
2022/09/11 00:21:49;;;;;;;15.83;5.60;;;;;;;24.72;61.66;101009.08;1782344;80;21001;-53
2022/09/11 00:24:16;;;;;;;11.53;4.20;;;;;;;24.74;61.76;101007.17;1781383;80;21013;-53
2022/09/11 00:26:46;;;;;;;12.07;4.03;;;;;;;24.77;61.70;100998.97;1783115;80;21037;-55
2022/09/11 00:29:11;;;;;;;19.32;5.62;;;;;;;24.78;61.52;100996.66;1784186;80;21097;-53
2022/09/11 00:31:38;;;;;;;14.70;3.90;;;;;;;24.80;61.67;100993.39;1783652;80;21462;-53
2022/09/11 00:34:05;;;;;;;9.88;4.05;;;;;;;24.81;61.78;100992.45;1780872;80;21052;-58
2022/09/11 00:36:34;;;;;;;12.58;4.80;;;;;;;24.82;61.79;100994.13;1781139;80;21029;-58
2022/09/11 00:39:01;;;;;;;12.35;4.10;;;;;;;24.84;62.07;100992.19;1780556;80;21076;-53
2022/09/11 00:41:34;;;;;;;12.25;4.83;;;;;;;24.86;62.12;100995.58;1775616;80;21076;-56
2022/09/11 00:44:16;;;;;;;20.70;6.08;;;;;;;24.86;62.23;100977.80;1786782;80;21008;-57
2022/09/11 00:46:50;;;;;;;9.70;3.90;;;;;;;24.90;62.54;100987.72;1771191;80;21025;-55
2022/09/11 00:49:50;;;;;;;9.23;4.30;;;;;;;24.92;62.12;100980.47;1777586;80;21065;-54
2022/09/11 00:52:32;;;;;;;13.35;4.35;;;;;;;24.93;61.92;100962.21;1781310;80;21001;-54
2022/09/11 00:55:09;;;;;;;15.10;4.75;;;;;;;24.94;61.88;100955.91;1780529;80;21522;-53
2022/09/11 00:57:44;;;;;;;17.70;4.95;;;;;;;24.96;62.12;100959.30;1780863;78;20990;-53
2022/09/11 01:00:12;;;;;;;11.05;4.22;;;;;;;24.97;62.41;100952.54;1780875;80;21522;-54
2022/09/11 01:02:41;;;;;;;11.73;4.53;;;;;;;25.00;62.35;100948.29;1781361;80;21017;-56
2022/09/11 01:05:08;;;;;;;11.00;4.30;;;;;;;25.02;62.42;100948.16;1783009;78;20982;-55
2022/09/11 01:07:35;;;;;;;15.38;4.85;;;;;;;25.03;62.30;100947.20;1783884;79;21057;-54
2022/09/11 01:10:05;;;;;;;16.97;4.90;;;;;;;25.04;62.11;100943.56;1779923;80;21505;-57
2022/09/11 01:12:54;;;;;;;22.52;5.58;;;;;;;25.06;62.08;100936.30;1691655;84;21066;-54
2022/09/11 01:15:26;;;;;;;12.10;4.30;;;;;;;25.06;62.14;100938.96;1650440;86;21064;-53
2022/09/11 01:18:14;;;;;;;17.37;5.58;;;;;;;25.07;62.11;100932.69;1607548;87;21066;-56
2022/09/11 01:21:25;;;;;;;19.20;5.90;;;;;;;25.06;62.20;100936.30;1577393;90;21059;-54
2022/09/11 01:24:13;;;;;;;14.58;4.75;;;;;;;25.07;62.46;100928.69;1571944;90;21067;-58
2022/09/11 01:27:31;;;;;;;14.25;4.58;;;;;;;25.06;62.56;100922.98;1570366;90;21115;-62
2022/09/11 01:30:14;;;;;;;14.73;5.12;;;;;;;25.07;62.73;100923.36;1574846;90;21084;-55
2022/09/11 01:32:58;;;;;;;13.20;4.85;;;;;;;25.07;62.78;100938.01;1525480;93;21107;-53
2022/09/11 01:35:51;;;;;;;22.73;6.00;;;;;;;25.08;62.99;100918.89;1523813;93;21107;-53
2022/09/11 01:38:42;;;;;;;11.80;5.05;;;;;;;25.06;63.21;100920.33;1499441;93;21575;-61
2022/09/11 01:41:26;;;;;;;11.88;4.25;;;;;;;25.05;63.39;100926.63;1526312;93;21162;-54
2022/09/11 01:44:11;;;;;;;13.55;5.20;;;;;;;25.03;63.49;100923.25;1498854;95;21070;-54
2022/09/11 01:46:41;;;;;;;24.15;6.12;;;;;;;25.03;63.70;100912.59;1463999;98;21134;-53
2022/09/11 01:49:34;;;;;;;15.20;5.80;;;;;;;25.05;63.83;100909.33;1469889;98;21126;-53
2022/09/11 01:52:07;;;;;;;13.00;4.58;;;;;;;25.04;63.74;100908.95;1469773;98;21721;-51
2022/09/11 01:54:42;;;;;;;17.25;4.80;;;;;;;25.04;63.78;100908.95;1469790;98;21135;-53
2022/09/11 01:57:32;;;;;;;11.08;4.45;;;;;;;25.04;63.75;100919.59;1469732;96;21107;-51
2022/09/11 02:00:01;;;;;;;18.10;5.42;;;;;;;25.05;63.53;100923.97;1422256;100;21731;-56
2022/09/11 02:02:34;;;;;;;27.40;7.83;;;;;;;25.07;63.58;100916.70;1431960;100;21610;-53
2022/09/11 02:05:15;;;;;;;12.93;4.60;;;;;;;25.09;63.64;100906.78;1432555;100;21075;-52
2022/09/11 02:07:57;;;;;;;19.65;5.10;;;;;;;25.11;63.53;100906.66;1439673;99;21117;-54
2022/09/11 02:10:40;;;;;;;13.53;5.00;;;;;;;25.11;63.64;100918.16;1517803;93;21142;-60
2022/09/11 02:13:17;;;;;;;24.72;6.47;;;;;;;25.13;63.54;100912.70;1533773;93;21177;-53
2022/09/11 02:15:49;;;;;;;35.68;8.40;;;;;;;25.12;63.76;100900.38;1491877;96;21121;-52
2022/09/11 02:18:43;;;;;;;29.07;8.25;;;;;;;25.10;63.97;100903.13;1492222;94;21087;-56
2022/09/11 02:21:09;;;;;;;37.00;8.70;;;;;;;25.08;64.05;100902.41;1532223;94;21617;-54
2022/09/11 02:23:38;;;;;;;23.12;7.40;;;;;;;25.07;64.00;100913.19;1532090;94;21132;-54
2022/09/11 02:26:06;;;;;;;29.70;7.28;;;;;;;25.07;64.05;100912.72;1523570;94;21576;-53
2022/09/11 02:28:33;;;;;;;18.65;6.20;;;;;;;25.07;64.06;100924.70;1532346;94;21101;-52
2022/09/11 02:31:02;;;;;;;20.60;6.15;;;;;;;25.07;63.90;100922.03;1532067;94;21573;-57
2022/09/11 02:33:34;;;;;;;14.33;3.87;;;;;;;25.08;64.09;100913.06;1532006;94;21129;-55
2022/09/11 02:36:44;;;;;;;8.48;3.20;;;;;;;25.10;64.18;100921.77;1481550;96;21098;-59
2022/09/11 02:39:42;;;;;;;12.00;3.87;;;;;;;25.11;64.14;100924.81;1443323;99;21179;-55
2022/09/11 02:42:26;;;;;;;8.00;3.02;;;;;;;25.15;63.98;100923.60;1439335;98;21197;-53
2022/09/11 02:45:18;;;;;;;9.25;3.35;;;;;;;25.19;63.94;100918.39;1431825;100;21134;-60
2022/09/11 02:47:57;;;;;;;7.85;3.25;;;;;;;25.22;63.98;100919.49;1429347;100;21207;-52
2022/09/11 02:50:50;;;;;;;11.97;3.77;;;;;;;25.24;64.02;100914.89;1407756;102;21610;-55
2022/09/11 02:53:34;;;;;;;16.82;3.95;;;;;;;25.28;63.90;100915.00;1402287;100;21137;-55
2022/09/11 02:56:18;;;;;;;15.35;4.97;;;;;;;25.29;63.59;100922.01;1425898;99;21216;-54
2022/09/11 02:58:49;;;;;;;10.98;3.47;;;;;;;25.30;63.50;100921.05;1426828;100;21170;-52
2022/09/11 03:01:17;;;;;;;18.95;5.25;;;;;;;25.29;63.52;100916.69;1382747;103;21787;-54
2022/09/11 03:03:46;;;;;;;11.97;4.35;;;;;;;25.30;63.52;100922.39;1382582;103;21186;-54
2022/09/11 03:06:22;;;;;;;12.45;3.90;;;;;;;25.21;63.81;100919.11;1383306;103;21164;-55
2022/09/11 03:08:48;;;;;;;8.00;3.40;;;;;;;25.18;64.09;100919.38;1382514;102;21222;-53
2022/09/11 03:11:16;;;;;;;10.13;3.87;;;;;;;25.20;64.18;100913.92;1385655;103;21639;-58
2022/09/11 03:13:45;;;;;;;7.83;2.80;;;;;;;25.21;64.25;100916.45;1385095;103;21144;-54
2022/09/11 03:16:13;;;;;;;5.40;2.30;;;;;;;25.23;64.30;100917.17;1374902;103;21213;-55
2022/09/11 03:18:40;;;;;;;5.75;2.37;;;;;;;25.26;64.26;100918.28;1384818;103;21167;-54
2022/09/11 03:21:09;;;;;;;6.47;2.40;;;;;;;25.41;63.87;100917.06;1404269;98;21077;-58
2022/09/11 03:23:37;;;;;;;6.53;2.50;;;;;;;25.46;63.68;100910.89;1447628;98;21137;-54
2022/09/11 03:26:04;;;;;;;6.83;2.47;;;;;;;25.49;63.62;100912.46;1446670;98;21180;-56
2022/09/11 03:28:31;;;;;;;3.20;2.05;;;;;;;25.50;63.54;100909.66;1443401;98;21611;-55
2022/09/11 03:30:58;;;;;;;5.50;2.20;;;;;;;25.51;63.48;100912.67;1500327;94;21165;-55
2022/09/11 03:33:25;;;;;;;5.95;2.27;;;;;;;25.53;63.42;100914.73;1555445;90;21516;-59
2022/09/11 03:35:53;;;;;;;7.00;2.40;;;;;;;25.54;63.43;100905.78;1626922;84;21551;-53
2022/09/11 03:38:19;;;;;;;5.10;2.15;;;;;;;25.55;63.44;100910.63;1706530;83;21091;-53
2022/09/11 03:40:46;;;;;;;3.62;2.02;;;;;;;25.56;63.34;100910.97;1706686;83;21560;-59
2022/09/11 03:43:15;;;;;;;6.33;2.47;;;;;;;25.58;63.33;100909.89;1706686;83;21072;-55
2022/09/11 03:45:43;;;;;;;7.20;2.47;;;;;;;25.57;63.29;100908.20;1706513;84;21008;-53
2022/09/11 03:48:10;;;;;;;6.05;2.35;;;;;;;25.58;63.31;100920.55;1706603;84;21094;-57
2022/09/11 03:50:37;;;;;;;5.65;2.50;;;;;;;25.58;63.37;100917.88;1706459;83;21060;-53
2022/09/11 03:53:03;;;;;;;6.08;2.30;;;;;;;25.59;63.26;100913.41;1713541;83;21094;-55
2022/09/11 03:55:30;;;;;;;4.97;2.08;;;;;;;25.62;63.24;100913.13;1706351;83;20997;-53
2022/09/11 03:57:58;;;;;;;7.78;2.33;;;;;;;25.63;63.23;100915.70;1755335;78;21518;-55
2022/09/11 04:00:25;;;;;;;3.65;2.10;;;;;;;25.65;63.22;100917.75;1814444;77;20991;-57
2022/09/11 04:02:54;;;;;;;4.03;2.02;;;;;;;25.65;63.16;100919.09;1814390;77;21487;-55
2022/09/11 04:05:32;;;;;;;6.00;2.22;;;;;;;25.66;63.11;100922.09;1810057;77;21026;-55
2022/09/11 04:08:01;;;;;;;5.72;2.20;;;;;;;25.66;63.11;100920.77;1818899;75;21056;-53
2022/09/11 04:10:32;;;;;;;5.10;2.10;;;;;;;25.67;63.09;100910.48;1825577;76;20969;-54
2022/09/11 04:13:00;;;;;;;4.45;1.92;;;;;;;25.67;63.04;100906.48;1820661;78;21516;-53
2022/09/11 04:15:27;;;;;;;5.20;2.20;;;;;;;25.68;62.96;100910.82;1825867;76;21000;-55
2022/09/11 04:17:55;;;;;;;15.63;4.62;;;;;;;25.68;62.86;100904.16;1825463;76;20989;-53
2022/09/11 04:20:22;;;;;;;14.10;4.25;;;;;;;25.68;62.78;100898.83;1824033;76;21063;-54
2022/09/11 04:22:49;;;;;;;11.70;4.00;;;;;;;25.68;62.92;100904.16;1821803;76;21473;-53
2022/09/11 04:25:16;;;;;;;6.28;2.40;;;;;;;25.66;62.87;100892.78;1794715;78;21013;-59
2022/09/11 04:27:43;;;;;;;7.83;2.77;;;;;;;25.66;62.92;100898.11;1829547;76;21485;-55
2022/09/11 04:30:13;;;;;;;7.25;2.87;;;;;;;25.67;62.95;100892.30;1821910;76;21009;-54
2022/09/11 04:32:39;;;;;;;6.40;2.50;;;;;;;25.66;63.02;100891.45;1823935;76;22420;-53
2022/09/11 04:35:07;;;;;;;6.45;3.05;;;;;;;25.67;63.04;100886.48;1823262;76;21523;-60
2022/09/11 04:37:36;;;;;;;8.33;2.52;;;;;;;25.67;63.09;100894.48;1817998;78;21005;-54
2022/09/11 04:40:04;;;;;;;5.92;2.27;;;;;;;25.68;63.02;100896.16;1825582;76;21461;-53
2022/09/11 04:42:30;;;;;;;6.97;2.90;;;;;;;25.68;63.01;100904.64;1810231;76;21539;-53
2022/09/11 04:44:58;;;;;;;5.40;2.37;;;;;;;25.67;62.97;100901.15;1822638;76;21056;-56
2022/09/11 04:47:24;;;;;;;5.22;2.05;;;;;;;25.67;62.91;100902.48;1824573;77;20985;-59
2022/09/11 04:49:51;;;;;;;4.08;2.25;;;;;;;25.68;62.95;100908.16;1825514;76;21014;-53
2022/09/11 04:52:18;;;;;;;4.05;2.60;;;;;;;25.67;62.97;100913.14;1811009;76;21048;-54
2022/09/11 04:54:45;;;;;;;3.47;2.67;;;;;;;25.67;62.95;100917.14;1825196;76;21032;-53
2022/09/11 04:57:13;;;;;;;4.22;2.50;;;;;;;25.70;62.87;100914.20;1829827;76;21012;-54
2022/09/11 04:59:40;;;;;;;6.95;2.42;;;;;;;25.70;62.84;100911.55;1824014;76;21013;-52
2022/09/11 05:02:09;;;;;;;6.55;2.75;;;;;;;25.71;62.82;100914.58;1820235;78;21048;-53
2022/09/11 05:04:38;;;;;;;4.17;2.50;;;;;;;25.72;62.80;100914.92;1825935;76;21009;-56
2022/09/11 05:07:05;;;;;;;5.05;2.87;;;;;;;25.72;62.90;100912.26;1825599;76;21532;-54
2022/09/11 05:09:31;;;;;;;6.30;2.72;;;;;;;25.73;62.99;100919.30;1835705;77;21050;-57
2022/09/11 05:11:58;;;;;;;4.87;2.77;;;;;;;25.73;63.10;100924.63;1835950;77;21464;-55
2022/09/11 05:14:28;;;;;;;6.20;2.62;;;;;;;25.75;63.09;100925.35;1824559;77;21066;-53
2022/09/11 05:16:55;;;;;;;4.90;2.75;;;;;;;25.75;63.03;100929.34;1839319;77;20975;-55
2022/09/11 05:19:24;;;;;;;7.25;3.40;;;;;;;25.76;62.96;100921.70;1827292;77;21027;-55
2022/09/11 05:21:51;;;;;;;4.72;2.62;;;;;;;25.77;62.81;100926.55;1836321;77;21007;-55
2022/09/11 05:24:19;;;;;;;5.58;3.05;;;;;;;25.77;62.65;100927.41;1838331;77;21050;-55
2022/09/11 05:26:46;;;;;;;6.22;3.12;;;;;;;25.79;62.57;100931.27;1839127;77;21589;-53
2022/09/11 05:29:14;;;;;;;5.67;3.12;;;;;;;25.80;62.40;100924.98;1834936;77;21031;-55
2022/09/11 05:31:42;;;;;;;5.28;3.10;;;;;;;25.80;62.37;100924.47;1828393;77;20995;-55
2022/09/11 05:34:09;;;;;;;4.58;3.35;;;;;;;25.78;62.42;100918.42;1835806;77;21066;-57
2022/09/11 05:36:36;;;;;;;4.33;3.10;;;;;;;25.78;62.42;100918.42;1835747;77;21519;-53
2022/09/11 05:39:03;;;;;;;7.03;2.98;;;;;;;25.79;62.43;100916.13;1837222;77;21031;-55
2022/09/11 05:41:32;;;;;;;6.80;3.10;;;;;;;25.80;62.29;100912.98;1834881;77;21063;-55
2022/09/11 05:43:59;;;;;;;5.65;3.30;;;;;;;25.80;62.33;100912.47;1837613;77;21019;-52
2022/09/11 05:46:26;;;;;;;5.97;3.47;;;;;;;25.81;62.34;100908.85;1833012;77;21015;-54
2022/09/11 05:48:54;;;;;;;4.20;2.65;;;;;;;25.82;62.37;100913.20;1836129;77;21015;-55
2022/09/11 05:51:21;;;;;;;4.17;3.05;;;;;;;25.83;62.35;100905.57;1829523;77;21067;-59
2022/09/11 05:53:53;;;;;;;7.83;3.55;;;;;;;25.85;62.44;100905.44;1839482;77;21006;-53
2022/09/11 05:56:23;;;;;;;;;;;;;;;25.88;62.41;100900.34;1842019;77;21062;-54
2022/09/11 05:58:52;;;;;;;6.75;3.33;;;;;;;25.91;62.62;100890.73;1784917;78;20114;-54
2022/09/11 06:01:26;;;;;;;4.58;3.00;;;;;;;25.97;62.83;100890.23;1783377;80;21053;-56
2022/09/11 06:03:54;;;;;;;4.53;3.10;;;;;;;26.03;62.86;100893.75;1744589;81;21550;-53
2022/09/11 06:06:23;;;;;;;5.35;3.47;;;;;;;26.11;63.00;100891.31;1752720;81;21579;-54
2022/09/11 06:08:51;;;;;;;4.95;3.10;;;;;;;26.20;62.67;100891.85;1738395;81;21138;-52
2022/09/11 06:11:19;;;;;;;4.25;3.02;;;;;;;26.29;62.46;100887.08;1730189;82;21556;-56
2022/09/11 06:13:46;;;;;;;5.28;3.40;;;;;;;26.37;62.00;100892.61;1724538;82;21053;-54
2022/09/11 06:16:16;;;;;;;5.20;3.08;;;;;;;26.41;61.39;100900.71;1736575;82;21056;-57
2022/09/11 06:18:43;;;;;;;4.05;2.90;;;;;;;26.44;61.32;100899.13;1712804;82;21052;-57
2022/09/11 06:21:12;;;;;;;3.45;2.80;;;;;;;26.48;61.30;100904.05;1723291;82;21040;-55
2022/09/11 06:23:40;;;;;;;6.35;3.52;;;;;;;26.55;61.06;100901.23;1696684;84;21606;-53
2022/09/11 06:26:11;;;;;;;3.77;3.20;;;;;;;26.61;61.00;100904.70;1691424;84;21024;-56
2022/09/11 06:28:39;;;;;;;3.92;3.33;;;;;;;26.68;60.74;100909.03;1705484;83;21112;-53
2022/09/11 06:31:10;;;;;;;3.45;3.00;;;;;;;26.74;60.22;100909.86;1701011;84;21588;-54
2022/09/11 06:33:38;;;;;;;4.40;3.30;;;;;;;26.74;59.69;100912.53;1689414;84;20996;-54
2022/09/11 06:36:15;;;;;;;4.92;3.10;;;;;;;26.70;59.11;100916.41;1711649;83;20962;-56
2022/09/11 06:38:43;;;;;;;3.87;3.37;;;;;;;26.70;59.11;100916.41;1691381;84;21576;-53
2022/09/11 06:41:15;;;;;;;4.85;3.37;;;;;;;26.68;59.22;100914.36;1696538;84;21060;-54
2022/09/11 06:43:42;;;;;;;3.50;3.20;;;;;;;26.65;59.13;100918.62;1687600;84;21121;-55
2022/09/11 06:46:14;;;;;;;5.17;3.45;;;;;;;26.63;58.96;100919.23;1684278;84;21065;-52
2022/09/11 06:48:43;;;;;;;5.15;3.08;;;;;;;26.60;58.99;100924.86;1652269;86;21022;-60
2022/09/11 06:51:13;;;;;;;4.62;3.40;;;;;;;26.58;59.16;100924.14;1684279;84;21512;-54
2022/09/11 06:53:42;;;;;;;3.62;2.75;;;;;;;26.58;59.27;100924.14;1689822;84;21059;-54
2022/09/11 06:56:13;;;;;;;6.05;3.75;;;;;;;26.59;59.46;100927.16;1638577;87;21066;-53
2022/09/11 06:58:42;;;;;;;5.00;3.47;;;;;;;26.63;59.58;100925.09;1660119;86;21020;-55
2022/09/11 07:01:17;;;;;;;4.72;3.30;;;;;;;26.67;59.58;100922.00;1653620;86;21066;-60
2022/09/11 07:03:46;;;;;;;4.15;3.37;;;;;;;26.69;59.29;100926.72;1695812;84;21061;-58
2022/09/11 07:06:16;;;;;;;4.20;3.05;;;;;;;26.72;59.29;100927.84;1699323;84;21005;-55
2022/09/11 07:08:43;;;;;;;3.50;3.20;;;;;;;26.76;59.27;100931.94;1607146;88;21076;-55
2022/09/11 07:11:13;;;;;;;4.10;3.70;;;;;;;26.80;59.14;100944.52;1634811;88;21562;-55
2022/09/11 07:13:43;;;;;;;5.40;3.67;;;;;;;26.67;58.94;100947.88;1634906;88;21124;-55
2022/09/11 07:16:12;;;;;;;3.22;3.02;;;;;;;26.67;58.94;100947.88;1607888;89;21086;-53
2022/09/11 07:18:42;;;;;;;3.30;2.80;;;;;;;26.62;58.75;100941.59;1657589;85;21104;-53
2022/09/11 07:21:14;;;;;;;3.22;2.80;;;;;;;26.58;58.77;100944.98;1686098;84;21056;-53
2022/09/11 07:23:42;;;;;;;4.67;3.10;;;;;;;26.57;58.73;100941.12;1668653;85;21502;-54
2022/09/11 07:26:10;;;;;;;4.90;3.37;;;;;;;26.55;58.64;100945.27;1667759;85;21633;-55
2022/09/11 07:28:38;;;;;;;3.42;3.10;;;;;;;26.52;58.77;100942.02;1669452;85;21590;-55
2022/09/11 07:31:14;;;;;;;4.42;3.12;;;;;;;26.52;58.77;100942.02;1694904;84;21466;-58
2022/09/11 07:33:44;;;;;;;4.28;3.37;;;;;;;26.49;58.23;100941.78;1694867;84;21021;-54
2022/09/11 07:36:13;;;;;;;4.40;3.27;;;;;;;26.49;58.23;100941.78;1637952;87;21565;-53
2022/09/11 07:38:46;;;;;;;3.87;3.17;;;;;;;26.45;58.34;100950.17;1637084;87;21082;-55
2022/09/11 07:41:14;;;;;;;4.15;3.85;;;;;;;26.42;58.30;100950.45;1629431;88;21093;-59
2022/09/11 07:43:44;;;;;;;4.72;3.40;;;;;;;26.36;58.37;100952.27;1588130;90;21052;-58
2022/09/11 07:46:11;;;;;;;4.75;3.08;;;;;;;26.36;58.37;100952.27;1651857;86;21068;-54
2022/09/11 07:48:38;;;;;;;4.65;3.50;;;;;;;26.34;58.00;100948.88;1662106;86;21043;-56
2022/09/11 07:51:07;;;;;;;3.65;3.10;;;;;;;26.31;57.80;100946.49;1663279;86;21078;-55
2022/09/11 07:53:39;;;;;;;4.28;3.70;;;;;;;26.27;57.68;100942.39;1664851;86;21103;-55
2022/09/11 07:56:08;;;;;;;4.03;3.17;;;;;;;26.25;57.87;100933.67;1664873;86;21086;-53
2022/09/11 07:58:39;;;;;;;4.08;3.37;;;;;;;26.23;58.31;100930.28;1663907;85;21523;-56
2022/09/11 08:01:11;;;;;;;4.85;3.12;;;;;;;26.23;58.31;100930.28;1668170;86;21067;-56
2022/09/11 08:03:38;;;;;;;;;;;;;;;26.24;57.81;100933.30;1644897;87;21036;-57
2022/09/11 08:06:07;;;;;;;2.87;2.67;;;;;;;26.25;57.45;100933.67;1656475;85;20111;-60
2022/09/11 08:08:37;;;;;;;3.07;2.80;;;;;;;26.20;57.05;100938.53;1667711;85;21164;-55
2022/09/11 08:11:11;;;;;;;3.37;2.92;;;;;;;26.13;57.31;100937.37;1659417;86;21106;-56
2022/09/11 08:13:38;;;;;;;2.75;2.52;;;;;;;26.13;57.31;100937.37;1642700;86;21018;-55
2022/09/11 08:16:06;;;;;;;3.02;2.72;;;;;;;26.09;57.10;100934.59;1632020;87;21106;-59
2022/09/11 08:18:36;;;;;;;3.17;2.87;;;;;;;26.05;57.27;100935.80;1629366;87;21037;-58
2022/09/11 08:23:37;;;;;;;3.50;2.90;;;;;;;26.03;57.66;100938.56;1558052;92;21053;-55
2022/09/11 08:26:15;;;;;;;3.27;2.98;;;;;;;26.04;57.32;100931.42;1563996;90;21064;-56
2022/09/11 08:28:42;;;;;;;2.87;2.62;;;;;;;26.03;57.11;100936.41;1563697;90;21081;-57
2022/09/11 08:31:10;;;;;;;3.85;3.05;;;;;;;26.01;56.84;100938.36;1563905;90;21084;-53
2022/09/11 08:33:38;;;;;;;3.12;2.83;;;;;;;25.98;57.29;100928.79;1578252;91;21757;-56
2022/09/11 08:36:08;;;;;;;4.42;3.52;;;;;;;26.01;57.06;100934.36;1582852;91;21121;-54
2022/09/11 08:38:37;;;;;;;4.42;2.75;;;;;;;26.01;57.05;100935.70;1582588;89;21076;-54
2022/09/11 08:41:24;;;;;;;3.92;3.37;;;;;;;26.04;57.59;100936.75;1582477;91;21529;-53
2022/09/11 08:43:55;;;;;;;2.92;2.72;;;;;;;26.04;57.59;100936.75;1582765;90;21081;-53
2022/09/11 08:46:25;;;;;;;3.65;3.33;;;;;;;26.06;57.20;100936.14;1549439;92;21134;-54
2022/09/11 08:49:22;;;;;;;4.30;3.27;;;;;;;26.08;57.15;100936.41;1549674;92;21570;-55
2022/09/11 08:51:51;;;;;;;3.58;3.22;;;;;;;26.10;56.73;100937.61;1549171;93;21118;-54
2022/09/11 08:54:33;;;;;;;3.87;3.05;;;;;;;26.10;56.80;100940.27;1549272;93;21498;-58
2022/09/11 08:57:58;;;;;;;4.78;3.35;;;;;;;26.10;56.79;100940.27;1549219;92;21152;-56
2022/09/11 09:00:32;;;;;;;2.98;2.77;;;;;;;26.12;56.56;100939.66;1523340;93;21110;-55
2022/09/11 09:03:43;;;;;;;3.47;3.12;;;;;;;26.09;56.39;100941.27;1512292;94;21111;-54
2022/09/11 09:07:00;;;;;;;2.83;2.62;;;;;;;26.07;56.15;100943.18;1478633;97;21070;-53
2022/09/11 09:09:44;;;;;;;4.78;2.98;;;;;;;26.04;55.91;100944.75;1477819;97;21138;-54
2022/09/11 09:12:49;;;;;;;4.62;3.10;;;;;;;25.97;55.66;100944.89;1471778;97;21091;-55
2022/09/11 09:15:41;;;;;;;3.50;2.95;;;;;;;25.97;55.66;100944.89;1468668;97;21693;-54
2022/09/11 09:18:19;;;;;;;3.62;2.87;;;;;;;25.95;55.60;100941.50;1490890;96;21112;-55
2022/09/11 09:20:51;;;;;;;3.08;2.65;;;;;;;25.96;55.56;100940.55;1473567;97;21137;-54
2022/09/11 09:23:21;;;;;;;3.08;2.87;;;;;;;25.99;55.59;100942.98;1454427;98;21167;-57
2022/09/11 09:25:47;;;;;;;2.50;2.30;;;;;;;26.02;55.35;100932.03;1457333;96;21165;-56
2022/09/11 09:28:26;;;;;;;2.37;2.17;;;;;;;26.05;55.08;100931.80;1485947;96;21133;-54
2022/09/11 09:30:58;;;;;;;2.60;2.22;;;;;;;26.06;54.86;100931.66;1477760;96;21132;-56
2022/09/11 09:33:45;;;;;;;2.42;2.22;;;;;;;26.06;54.63;100930.80;1476638;96;21555;-61
2022/09/11 09:36:17;;;;;;;2.25;2.05;;;;;;;26.06;54.23;100926.33;1474305;96;21121;-54
2022/09/11 09:38:45;;;;;;;3.08;2.17;;;;;;;26.10;54.35;100932.28;1465671;97;21113;-56
2022/09/11 09:41:43;;;;;;;2.30;2.10;;;;;;;26.10;54.35;100932.28;1474031;97;21141;-55
2022/09/11 09:44:38;;;;;;;3.20;2.35;;;;;;;26.13;53.92;100938.70;1501761;94;21157;-54
2022/09/11 09:47:09;;;;;;;4.05;2.90;;;;;;;26.16;53.74;100939.77;1494719;94;21112;-53
2022/09/11 09:49:36;;;;;;;3.80;2.25;;;;;;;26.18;54.02;100935.15;1483629;95;21145;-54
2022/09/11 09:52:26;;;;;;;2.80;2.60;;;;;;;26.21;54.13;100936.23;1482820;95;21180;-56
2022/09/11 09:55:05;;;;;;;3.70;2.08;;;;;;;26.21;53.91;100942.91;1432227;99;21119;-58
2022/09/11 09:57:34;;;;;;;4.30;2.35;;;;;;;26.20;53.99;100935.86;1493655;92;21090;-57
2022/09/11 10:00:08;;;;;;;2.90;2.08;;;;;;;26.21;53.56;100943.77;1528757;92;21054;-55
2022/09/11 10:02:52;;;;;;;1.90;1.80;;;;;;;26.22;52.89;100941.91;1482211;95;21140;-55
2022/09/11 10:05:33;;;;;;;2.27;2.00;;;;;;;26.21;52.57;100937.57;1503941;93;21117;-56
2022/09/11 10:08:04;;;;;;;2.42;2.12;;;;;;;26.21;52.71;100935.76;1414294;100;21759;-58
2022/09/11 10:10:37;;;;;;;2.08;1.80;;;;;;;26.27;53.09;100941.06;1426730;101;21160;-54
2022/09/11 10:13:07;;;;;;;2.35;2.02;;;;;;;26.31;52.40;100935.82;1416893;100;21126;-55
2022/09/11 10:15:38;;;;;;;2.95;2.10;;;;;;;26.34;52.36;100939.55;1414163;100;21210;-60
2022/09/11 10:18:32;;;;;;;2.35;2.00;;;;;;;26.38;52.23;100945.84;1417202;99;21155;-56
2022/09/11 10:21:16;;;;;;;2.25;1.98;;;;;;;26.41;52.15;100944.73;1451796;97;21119;-53
2022/09/11 10:23:55;;;;;;;2.60;2.40;;;;;;;26.45;52.28;100940.83;1441323;97;21568;-57
2022/09/11 10:26:32;;;;;;;3.30;2.27;;;;;;;26.46;52.25;100934.53;1435463;98;21693;-54
2022/09/11 10:29:18;;;;;;;3.98;2.20;;;;;;;26.55;52.21;100939.07;1469730;97;21201;-53
2022/09/11 10:31:53;;;;;;;2.30;2.10;;;;;;;26.55;52.21;100939.07;1479001;94;21107;-55
2022/09/11 10:34:23;;;;;;;2.65;2.02;;;;;;;26.57;52.06;100943.78;1453248;97;21147;-56
2022/09/11 10:37:07;;;;;;;2.15;1.80;;;;;;;26.63;52.20;100943.77;1442437;98;21137;-56
2022/09/11 10:39:35;;;;;;;2.52;2.10;;;;;;;26.65;51.96;100939.97;1373122;102;21178;-55
2022/09/11 10:42:22;;;;;;;3.08;2.10;;;;;;;26.69;52.07;100942.73;1360637;104;21171;-56
2022/09/11 10:44:49;;;;;;;2.42;2.22;;;;;;;26.72;51.97;100931.84;1346559;107;21173;-53
2022/09/11 10:47:21;;;;;;;2.52;2.20;;;;;;;26.72;51.97;100931.84;1400594;101;21166;-54
2022/09/11 10:49:48;;;;;;;2.37;2.17;;;;;;;26.78;51.95;100943.33;1423953;101;21135;-56
2022/09/11 10:52:18;;;;;;;2.83;2.17;;;;;;;26.81;51.94;100939.55;1424176;101;21143;-54
2022/09/11 10:55:14;;;;;;;2.25;2.05;;;;;;;26.83;52.40;100934.92;1405324;101;21134;-58
2022/09/11 10:57:54;;;;;;;2.12;2.02;;;;;;;26.98;51.65;100937.09;1464094;93;21178;-54
2022/09/11 11:00:23;;;;;;;;;;;;;;;26.98;51.65;100937.09;1526119;93;21651;-54
2022/09/11 11:02:56;;;;;;;1.72;1.62;;;;;;;27.02;51.72;100935.84;1522586;93;20450;-54
2022/09/11 11:05:56;;;;;;;2.10;2.00;;;;;;;27.07;51.60;100934.97;1595602;87;21076;-57
2022/09/11 11:08:45;;;;;;;2.62;2.30;;;;;;;27.11;51.46;100929.72;1597598;88;21575;-56
2022/09/11 11:11:55;;;;;;;2.22;2.02;;;;;;;27.21;51.31;100909.22;1549965;92;21114;-54
2022/09/11 11:14:58;;;;;;;2.42;2.30;;;;;;;27.21;51.31;100909.22;1583661;90;21081;-54
2022/09/11 11:18:00;;;;;;;3.27;2.10;;;;;;;27.27;51.44;100918.03;1575012;90;21598;-56
2022/09/11 11:20:33;;;;;;;2.37;2.17;;;;;;;27.27;51.44;100918.03;1573879;90;21125;-56
2022/09/11 11:23:17;;;;;;;2.42;2.22;;;;;;;27.31;51.22;100922.59;1577300;90;21160;-54
2022/09/11 11:26:08;;;;;;;2.50;2.30;;;;;;;27.32;51.30;100924.30;1578298;90;21057;-60
2022/09/11 11:28:55;;;;;;;2.27;2.00;;;;;;;27.35;51.03;100912.88;1576017;90;21151;-54
2022/09/11 11:31:41;;;;;;;3.25;1.95;;;;;;;27.38;50.87;100907.27;1577481;90;21080;-54
2022/09/11 11:34:24;;;;;;;2.10;2.00;;;;;;;27.43;50.56;100907.35;1581200;90;21053;-56
2022/09/11 11:37:14;;;;;;;2.65;2.15;;;;;;;27.45;50.72;100906.72;1528587;93;21103;-58
2022/09/11 11:40:11;;;;;;;2.00;1.90;;;;;;;27.45;50.72;100906.72;1527753;92;21535;-62
2022/09/11 11:42:45;;;;;;;3.10;1.77;;;;;;;27.52;50.24;100906.51;1558472;91;21149;-55
2022/09/11 11:45:31;;;;;;;1.92;1.80;;;;;;;27.53;49.81;100894.37;1539400;93;23026;-55
2022/09/11 11:48:00;;;;;;;4.03;2.17;;;;;;;27.53;49.81;100894.37;1532478;93;21103;-57
2022/09/11 11:50:35;;;;;;;2.05;1.92;;;;;;;27.56;49.75;100903.91;1500985;95;21167;-54
2022/09/11 11:53:27;;;;;;;2.58;2.00;;;;;;;27.55;49.46;100893.73;1496811;95;21139;-54
2022/09/11 11:56:00;;;;;;;2.05;1.70;;;;;;;27.55;49.46;100893.73;1491499;95;21191;-57
2022/09/11 11:58:46;;;;;;;1.90;1.80;;;;;;;27.56;49.59;100899.91;1500241;95;21601;-60
2022/09/11 12:01:41;;;;;;;1.90;1.72;;;;;;;27.58;49.46;100895.27;1501025;95;21632;-56